Terminal Aerodrome Forecast
Issued by NWS Jackson, MS

Home | Current Version | Previous Version | Text Only | Print | Product List | Glossary On
Versions: 1 2 3 4 5 6 7 8 9 10 11 12 13 14
000
FTUS44 KJAN 012300 RRA
TAFGWO
TAF
KGWO 012343Z 0200/0224 15006KT P6SM FEW060 SCT150
     FM021100 16005KT 5SM BR BKN020
     FM021500 19011KT P6SM VCTS BKN030 BKN050CB=

USA.gov is the U.S. government's official web portal to all federal, state and local government web resources and services.